Time;durP1;ratioP1;P1;durP2;ratioP2;P2;SDS_P1;SDS_P2;PMS_P1;PMS_P2;Temp;Humidity;BMP_temperature;BMP_pressure;BME280_temperature;BME280_humidity;BME280_pressure;Samples;Min_cycle;Max_cycle;Signal;HPM_P1;HPM_P2
2022/02/21 00:00:59;;;;;;;8.63;5.37;;;;;;;0.03;75.19;95520.67;1724089;83;21027;-66
2022/02/21 00:03:27;;;;;;;11.00;5.90;;;;;;;-0.03;75.37;95511.88;1723961;83;21477;-66
2022/02/21 00:05:53;;;;;;;10.80;5.83;;;;;;;-0.04;75.97;95509.28;1723981;83;21541;-66
2022/02/21 00:08:20;;;;;;;13.57;6.37;;;;;;;-0.10;75.82;95508.73;1723980;83;21015;-67
2022/02/21 00:10:47;;;;;;;10.13;5.80;;;;;;;-0.12;75.67;95510.42;1723855;83;21011;-66
2022/02/21 00:13:13;;;;;;;11.63;5.80;;;;;;;-0.11;75.91;95512.16;1724019;83;21046;-66
2022/02/21 00:15:40;;;;;;;8.83;4.80;;;;;;;-0.14;76.16;95516.41;1723844;83;21663;-66
2022/02/21 00:18:07;;;;;;;14.43;6.80;;;;;;;-0.22;76.04;95510.64;1724012;83;21031;-66
2022/02/21 00:20:34;;;;;;;11.97;6.50;;;;;;;-0.22;75.78;95504.16;1724029;83;21046;-66
2022/02/21 00:23:00;;;;;;;12.03;6.60;;;;;;;-0.16;75.32;95500.81;1723768;83;21034;-67
2022/02/21 00:25:27;;;;;;;13.60;7.20;;;;;;;-0.11;75.29;95503.50;1723980;83;21038;-66
2022/02/21 00:27:53;;;;;;;15.00;6.77;;;;;;;-0.10;75.17;95497.06;1724004;82;21018;-66
2022/02/21 00:30:20;;;;;;;11.50;5.50;;;;;;;-0.13;75.47;95498.70;1723996;83;21074;-66
2022/02/21 00:32:46;;;;;;;13.47;6.77;;;;;;;-0.20;75.54;95502.00;1723953;83;20987;-67
2022/02/21 00:35:13;;;;;;;12.93;6.70;;;;;;;-0.28;75.65;95501.84;1724188;83;21030;-66
2022/02/21 00:37:40;;;;;;;10.97;6.20;;;;;;;-0.27;75.51;95501.89;1724183;83;20995;-66
2022/02/21 00:40:08;;;;;;;11.63;6.37;;;;;;;-0.34;76.26;95486.17;1724015;83;20995;-66
2022/02/21 00:42:35;;;;;;;13.60;5.60;;;;;;;-0.38;76.09;95481.32;1724069;83;21034;-67
2022/02/21 00:45:06;;;;;;;9.20;4.27;;;;;;;-0.40;75.86;95485.62;1724019;83;20995;-66
2022/02/21 00:47:30;;;;;;;10.20;5.50;;;;;;;-0.42;75.75;95477.36;1723770;83;21022;-66
2022/02/21 00:49:57;;;;;;;11.33;5.33;;;;;;;-0.43;75.66;95473.87;1724210;83;21023;-66
2022/02/21 00:52:24;;;;;;;11.00;5.63;;;;;;;-0.38;76.16;95463.60;1724209;82;21492;-66
2022/02/21 00:54:51;;;;;;;11.87;6.57;;;;;;;-0.35;76.39;95472.34;1723907;83;21031;-66
2022/02/21 00:57:17;;;;;;;10.83;5.27;;;;;;;-0.42;76.10;95466.99;1724281;82;21014;-66
2022/02/21 00:59:44;;;;;;;12.60;4.63;;;;;;;-0.43;76.21;95463.50;1724149;82;21090;-66
2022/02/21 01:02:11;;;;;;;11.07;6.37;;;;;;;-0.45;75.95;95461.33;1724246;83;20971;-66
2022/02/21 01:04:39;;;;;;;10.27;6.23;;;;;;;-0.51;76.06;95461.17;1724243;83;21022;-66
2022/02/21 01:07:05;;;;;;;15.10;7.60;;;;;;;-0.48;76.47;95454.36;1724736;82;21001;-66
2022/02/21 01:09:32;;;;;;;14.03;6.20;;;;;;;-0.36;76.12;95448.97;1724015;83;21030;-66
2022/02/21 01:12:00;;;;;;;9.57;5.60;;;;;;;-0.30;75.70;95449.11;1724254;83;21007;-66
2022/02/21 01:14:26;;;;;;;11.00;6.40;;;;;;;-0.24;75.80;95445.33;1724120;82;21075;-66
2022/02/21 01:16:53;;;;;;;11.33;5.87;;;;;;;-0.22;75.75;95440.63;1726746;82;21042;-66
2022/02/21 01:19:19;;;;;;;13.07;6.30;;;;;;;-0.18;75.48;95444.14;1702543;83;21549;-66
2022/02/21 01:21:46;;;;;;;11.57;6.53;;;;;;;-0.23;76.21;95436.30;1729672;83;21057;-66
2022/02/21 01:24:12;;;;;;;11.97;6.77;;;;;;;-0.22;75.84;95430.26;1729419;83;21046;-67
2022/02/21 01:26:39;;;;;;;9.63;5.00;;;;;;;-0.33;77.34;95434.77;1729357;83;21022;-66
2022/02/21 01:29:05;;;;;;;11.87;7.10;;;;;;;-0.28;76.45;95424.96;1729522;82;21018;-66
2022/02/21 01:31:32;;;;;;;14.30;7.80;;;;;;;-0.34;77.15;95420.06;1729645;83;21022;-66
2022/02/21 01:33:59;;;;;;;13.50;7.20;;;;;;;-0.29;77.45;95418.44;1729470;83;21007;-66
2022/02/21 01:36:25;;;;;;;13.27;7.43;;;;;;;-0.21;77.33;95406.49;1729617;83;21513;-66
2022/02/21 01:38:52;;;;;;;23.23;11.60;;;;;;;-0.16;76.83;95406.16;1729377;83;20998;-66
2022/02/21 01:41:18;;;;;;;17.73;9.63;;;;;;;-0.16;76.17;95391.90;1729588;82;21022;-66
2022/02/21 01:43:47;;;;;;;15.63;8.37;;;;;;;-0.12;76.46;95396.74;1729521;83;21054;-66
2022/02/21 01:46:15;;;;;;;15.30;8.67;;;;;;;-0.10;76.48;95402.80;1729493;82;21070;-66
2022/02/21 01:48:42;;;;;;;16.60;8.60;;;;;;;-0.12;76.83;95395.44;1729498;82;20991;-66
2022/02/21 01:51:10;;;;;;;15.73;7.70;;;;;;;-0.10;76.72;95388.54;1702576;83;32330;-67
2022/02/21 01:53:37;;;;;;;11.20;6.53;;;;;;;-0.06;77.19;95383.45;1702805;83;21030;-67
2022/02/21 01:56:04;;;;;;;17.77;10.50;;;;;;;-0.09;77.10;95376.91;1729517;83;21779;-66
2022/02/21 01:58:31;;;;;;;21.20;10.10;;;;;;;-0.12;77.02;95372.10;1729605;83;21026;-66
2022/02/21 02:00:57;;;;;;;19.00;9.97;;;;;;;-0.07;77.54;95376.52;1729501;83;21018;-66
2022/02/21 02:03:24;;;;;;;29.20;14.53;;;;;;;-0.02;77.53;95368.41;1729537;83;21492;-66
2022/02/21 02:05:50;;;;;;;32.40;16.10;;;;;;;-0.01;77.36;95357.59;1729545;82;20994;-66
2022/02/21 02:08:17;;;;;;;37.87;18.73;;;;;;;0.08;77.19;95353.02;1729532;82;21066;-66
2022/02/21 02:10:44;;;;;;;36.07;16.93;;;;;;;0.05;77.41;95348.65;1729521;82;21315;-67
2022/02/21 02:13:10;;;;;;;33.67;17.53;;;;;;;0.09;77.48;95340.05;1729595;82;21489;-66
2022/02/21 02:15:37;;;;;;;39.17;19.93;;;;;;;0.09;77.66;95329.67;1729299;83;21054;-66
2022/02/21 02:18:03;;;;;;;35.00;16.20;;;;;;;0.04;77.35;95325.27;1729438;82;21050;-66
2022/02/21 02:20:30;;;;;;;31.37;14.60;;;;;;;0.04;76.92;95317.48;1729312;82;21034;-66
2022/02/21 02:22:57;;;;;;;29.73;15.77;;;;;;;0.05;76.80;95309.73;1729432;82;21480;-66
2022/02/21 02:25:24;;;;;;;25.87;14.20;;;;;;;0.02;77.24;95303.61;1729510;82;21077;-66
2022/02/21 02:27:50;;;;;;;25.97;14.77;;;;;;;0.04;77.02;95298.89;1729620;82;21465;-66
2022/02/21 02:30:17;;;;;;;21.90;11.60;;;;;;;0.08;77.24;95294.22;1729602;82;21030;-66
2022/02/21 02:32:48;;;;;;;23.03;11.87;;;;;;;0.09;76.85;95295.09;1729608;82;20998;-66
2022/02/21 02:35:12;;;;;;;16.27;9.57;;;;;;;0.19;76.82;95286.60;1729216;83;21023;-66
2022/02/21 02:37:38;;;;;;;18.53;9.93;;;;;;;0.15;76.69;95283.50;1729528;82;21026;-66
2022/02/21 02:40:06;;;;;;;13.53;8.20;;;;;;;0.16;76.99;95274.89;1729329;83;21542;-66
2022/02/21 02:42:33;;;;;;;14.20;8.00;;;;;;;0.19;76.49;95269.73;1729617;83;21007;-66
2022/02/21 02:44:59;;;;;;;10.23;5.17;;;;;;;0.19;76.47;95268.45;1729516;82;21571;-66
2022/02/21 02:47:26;;;;;;;12.97;6.67;;;;;;;0.20;76.34;95252.91;1729476;83;21023;-66
2022/02/21 02:49:52;;;;;;;11.83;5.87;;;;;;;0.16;76.73;95254.13;1729474;83;21002;-66
2022/02/21 02:52:19;;;;;;;11.43;5.47;;;;;;;0.21;76.52;95246.86;1729505;83;21014;-66
2022/02/21 02:54:45;;;;;;;8.10;4.57;;;;;;;0.23;76.32;95244.30;1729454;83;21058;-66
2022/02/21 02:57:12;;;;;;;18.67;10.30;;;;;;;0.20;76.36;95244.23;1729520;83;20979;-66
2022/02/21 02:59:38;;;;;;;23.07;11.63;;;;;;;0.01;77.32;95248.70;1729536;82;21559;-66
2022/02/21 03:02:05;;;;;;;7.93;4.87;;;;;;;0.02;77.24;95249.14;1729606;82;21437;-66
2022/02/21 03:04:31;;;;;;;6.80;3.90;;;;;;;0.09;76.92;95240.61;1729477;83;21065;-66
2022/02/21 03:07:00;;;;;;;6.33;3.93;;;;;;;0.19;76.68;95242.06;1729489;83;21003;-66
2022/02/21 03:09:28;;;;;;;7.47;3.93;;;;;;;0.24;76.27;95236.09;1729463;83;21054;-66
2022/02/21 03:11:55;;;;;;;10.77;5.03;;;;;;;0.32;76.35;95228.85;1729409;83;21042;-66
2022/02/21 03:14:23;;;;;;;14.90;8.13;;;;;;;0.31;76.72;95227.55;1729209;82;21570;-66
2022/02/21 03:16:50;;;;;;;32.40;15.60;;;;;;;0.27;76.92;95218.83;1727951;82;21481;-66
2022/02/21 03:19:19;;;;;;;34.13;16.70;;;;;;;0.11;77.03;95218.17;1724029;83;21038;-66
2022/02/21 03:21:46;;;;;;;35.47;16.97;;;;;;;0.08;76.79;95215.53;1723957;83;21046;-66
2022/02/21 03:24:13;;;;;;;27.53;13.57;;;;;;;0.04;77.09;95209.84;1723921;83;21018;-67
2022/02/21 03:26:40;;;;;;;12.70;5.93;;;;;;;0.02;77.75;95210.23;1724144;83;21540;-66
2022/02/21 03:29:07;;;;;;;5.13;3.20;;;;;;;-0.02;76.93;95202.41;1724100;82;21003;-66
2022/02/21 03:31:33;;;;;;;4.30;3.07;;;;;;;0.01;76.97;95194.23;1724025;82;21551;-66
2022/02/21 03:34:00;;;;;;;3.37;2.37;;;;;;;0.05;77.15;95198.59;1724043;83;21018;-66
2022/02/21 03:36:26;;;;;;;4.90;2.50;;;;;;;0.04;76.92;95199.46;1724016;83;21019;-66
2022/02/21 03:38:53;;;;;;;3.60;2.20;;;;;;;0.02;76.94;95192.08;1724015;83;20971;-66
2022/02/21 03:41:19;;;;;;;5.67;2.27;;;;;;;0.04;76.73;95190.38;1723774;83;21070;-66
2022/02/21 03:43:46;;;;;;;4.10;2.30;;;;;;;0.04;76.82;95183.90;1724137;83;21007;-66
2022/02/21 03:46:12;;;;;;;3.10;1.90;;;;;;;0.01;76.62;95174.35;1723927;83;21497;-67
2022/02/21 03:48:39;;;;;;;3.97;1.90;;;;;;;-0.05;76.56;95167.36;1724052;82;20970;-66
2022/02/21 03:51:05;;;;;;;4.93;2.40;;;;;;;-0.03;76.79;95157.85;1724012;82;21481;-66
2022/02/21 03:53:32;;;;;;;9.23;3.00;;;;;;;-0.03;76.96;95166.06;1723956;82;21014;-66
2022/02/21 03:55:58;;;;;;;2.97;2.20;;;;;;;-0.09;76.73;95161.66;1724007;83;21035;-66
2022/02/21 03:58:25;;;;;;;2.93;1.70;;;;;;;-0.10;76.69;95162.53;1723987;83;21006;-66
2022/02/21 04:00:51;;;;;;;2.50;1.50;;;;;;;-0.13;76.46;95173.26;1723986;83;21573;-66
2022/02/21 04:03:18;;;;;;;2.27;1.63;;;;;;;-0.29;76.90;95160.05;1723998;82;21062;-66
2022/02/21 04:05:45;;;;;;;1.43;0.90;;;;;;;-0.35;76.83;95159.97;1724102;82;21536;-66
2022/02/21 04:08:12;;;;;;;10.67;8.40;;;;;;;-0.34;76.75;95160.84;1723896;83;21019;-66
2022/02/21 04:10:38;;;;;;;6.20;3.90;;;;;;;-0.30;77.10;95153.57;1724079;83;21027;-66
2022/02/21 04:13:04;;;;;;;2.40;1.77;;;;;;;-0.27;77.47;95154.48;1724241;83;21027;-66
2022/02/21 04:15:31;;;;;;;3.03;1.07;;;;;;;-0.35;77.43;95155.19;1724073;83;21026;-66
2022/02/21 04:17:58;;;;;;;2.80;1.30;;;;;;;-0.33;77.12;95151.80;1724121;82;21039;-66
2022/02/21 04:20:30;;;;;;;4.77;3.20;;;;;;;-0.30;78.00;95149.68;1724194;83;21089;-66
2022/02/21 04:22:56;;;;;;;4.13;3.30;;;;;;;-0.27;78.15;95149.29;1724118;82;21501;-66
2022/02/21 04:25:23;;;;;;;3.47;2.43;;;;;;;-0.30;78.36;95149.25;1724034;82;21030;-66
2022/02/21 04:27:53;;;;;;;3.17;1.70;;;;;;;-0.23;77.79;95154.98;1724248;83;20999;-66
2022/02/21 04:30:23;;;;;;;5.70;1.50;;;;;;;-0.17;78.10;95158.09;1724105;82;21019;-66
2022/02/21 04:32:51;;;;;;;1.30;1.10;;;;;;;-0.08;77.73;95146.97;1724167;83;21027;-66
2022/02/21 04:35:20;;;;;;;31.50;13.93;;;;;;;-0.06;78.06;95147.88;1724077;82;21041;-66
2022/02/21 04:37:47;;;;;;;3.00;1.43;;;;;;;-0.08;78.30;95140.05;1724153;83;21026;-66
2022/02/21 04:40:18;;;;;;;4.33;2.00;;;;;;;-0.06;77.97;95132.31;1724140;83;21087;-66
2022/02/21 04:42:48;;;;;;;3.63;1.57;;;;;;;-0.02;77.95;95131.09;1723606;82;21058;-66
2022/02/21 04:45:15;;;;;;;2.13;1.43;;;;;;;0.05;77.66;95128.17;1724176;83;21061;-66
2022/02/21 04:47:41;;;;;;;1.83;0.80;;;;;;;0.06;77.65;95128.60;1724234;82;21070;-66
2022/02/21 04:50:09;;;;;;;17.17;11.90;;;;;;;0.17;78.14;95126.14;1724115;82;21046;-66
2022/02/21 04:52:37;;;;;;;21.33;10.40;;;;;;;0.22;78.51;95121.89;1724338;83;21066;-66
2022/02/21 04:55:06;;;;;;;19.93;10.77;;;;;;;0.22;78.34;95120.59;1724071;82;21054;-66
2022/02/21 04:57:32;;;;;;;11.73;6.30;;;;;;;0.27;78.06;95118.93;1724096;82;21505;-66
2022/02/21 04:59:59;;;;;;;12.53;7.40;;;;;;;0.24;77.62;95121.92;1724225;82;21035;-66
2022/02/21 05:02:25;;;;;;;18.13;10.87;;;;;;;0.21;77.95;95113.24;1724129;83;21507;-66
2022/02/21 05:04:52;;;;;;;17.87;10.77;;;;;;;0.18;78.14;95105.86;1724172;83;21441;-66
2022/02/21 05:07:19;;;;;;;5.90;4.27;;;;;;;0.20;77.98;95108.92;1724205;82;21481;-66
2022/02/21 05:09:45;;;;;;;6.67;3.47;;;;;;;0.18;78.36;95100.67;1724111;83;21010;-66
2022/02/21 05:12:12;;;;;;;20.13;12.07;;;;;;;0.21;79.08;95099.41;1723963;83;21074;-66
2022/02/21 05:14:38;;;;;;;7.27;4.23;;;;;;;0.26;79.02;95084.77;1724108;83;21022;-66
2022/02/21 05:17:05;;;;;;;4.13;3.13;;;;;;;0.31;78.58;95076.61;1723892;83;21042;-67
2022/02/21 05:19:32;;;;;;;3.17;2.03;;;;;;;0.33;78.46;95077.94;1723900;83;20999;-66
2022/02/21 05:21:59;;;;;;;4.73;2.33;;;;;;;0.35;77.99;95074.52;1724120;83;21525;-66
2022/02/21 05:24:26;;;;;;;14.73;8.50;;;;;;;0.34;78.60;95074.48;1723998;82;21050;-66
2022/02/21 05:26:53;;;;;;;8.23;3.33;;;;;;;0.33;78.52;95068.86;1723860;83;21033;-66
2022/02/21 05:29:19;;;;;;;77.07;25.93;;;;;;;0.34;78.14;95065.40;1724143;82;21014;-66
2022/02/21 05:31:46;;;;;;;107.43;36.37;;;;;;;0.24;78.68;95055.33;1723920;83;21020;-66
2022/02/21 05:34:14;;;;;;;88.57;30.53;;;;;;;0.24;78.22;95051.88;1724122;83;21047;-66
2022/02/21 05:36:41;;;;;;;49.70;19.13;;;;;;;0.28;78.73;95046.74;1724201;82;21019;-66
2022/02/21 05:39:08;;;;;;;42.57;14.97;;;;;;;0.33;78.59;95048.09;1724181;83;21014;-66
2022/02/21 05:41:34;;;;;;;17.70;6.30;;;;;;;0.38;78.69;95051.19;1723962;82;21798;-66
2022/02/21 05:44:01;;;;;;;15.17;3.83;;;;;;;0.48;78.88;95050.87;1724122;83;21025;-66
2022/02/21 05:46:28;;;;;;;2.93;1.50;;;;;;;0.53;78.56;95053.09;1724050;83;21015;-67
2022/02/21 05:48:55;;;;;;;4.03;1.60;;;;;;;0.54;78.32;95043.14;1724223;82;21022;-66
2022/02/21 05:51:22;;;;;;;9.60;3.83;;;;;;;0.55;78.44;95037.08;1724085;82;21466;-66
2022/02/21 05:53:49;;;;;;;18.53;8.83;;;;;;;0.63;78.93;95038.45;1723942;82;21027;-67
2022/02/21 05:56:16;;;;;;;23.07;12.20;;;;;;;0.65;78.77;95034.16;1724081;83;21031;-67
2022/02/21 05:58:43;;;;;;;33.17;15.03;;;;;;;0.76;78.58;95039.05;1724133;82;21015;-66
2022/02/21 06:01:09;;;;;;;28.43;14.83;;;;;;;0.69;77.91;95043.73;1723859;83;21070;-66
2022/02/21 06:03:36;;;;;;;25.97;14.73;;;;;;;0.76;78.01;95037.75;1722532;82;21030;-65
2022/02/21 06:06:03;;;;;;;26.33;14.80;;;;;;;0.84;77.66;95039.13;1695248;83;20998;-65
2022/02/21 06:08:30;;;;;;;28.37;16.13;;;;;;;0.91;77.60;95033.13;1722720;83;21074;-65
2022/02/21 06:10:58;;;;;;;27.77;16.10;;;;;;;0.98;77.58;95033.64;1722466;83;21535;-67
2022/02/21 06:13:24;;;;;;;17.97;11.10;;;;;;;1.06;77.89;95018.12;1722613;83;22212;-66
2022/02/21 06:15:51;;;;;;;21.27;13.20;;;;;;;1.09;78.04;95022.03;1724201;82;20963;-70
2022/02/21 06:18:17;;;;;;;22.83;14.67;;;;;;;1.10;77.74;95012.06;1724996;82;21042;-71
2022/02/21 06:20:44;;;;;;;27.67;16.53;;;;;;;1.13;77.92;95000.83;1728727;82;21080;-68
2022/02/21 06:23:10;;;;;;;29.40;17.27;;;;;;;1.20;77.84;94989.20;1727127;83;21323;-67
2022/02/21 06:25:38;;;;;;;32.13;18.53;;;;;;;1.28;77.51;94976.26;1776790;80;20975;-65
2022/02/21 06:28:05;;;;;;;28.47;18.80;;;;;;;1.40;77.30;94969.84;1784690;80;21038;-65
2022/02/21 06:30:32;;;;;;;34.70;20.33;;;;;;;1.49;76.95;94969.91;1784867;80;21002;-65
2022/02/21 06:32:58;;;;;;;23.57;14.97;;;;;;;1.58;76.72;94969.09;1784766;80;21121;-65
2022/02/21 06:35:25;;;;;;;22.13;14.60;;;;;;;1.67;76.32;94957.89;1784573;80;21053;-68
2022/02/21 06:37:54;;;;;;;19.30;12.60;;;;;;;1.73;76.15;94954.00;1784302;80;21019;-67
2022/02/21 06:40:20;;;;;;;19.87;13.40;;;;;;;1.75;75.90;94943.62;1784977;80;21471;-66
2022/02/21 06:42:48;;;;;;;21.13;13.60;;;;;;;1.75;76.06;94934.52;1784678;80;21061;-65
2022/02/21 06:45:16;;;;;;;21.90;14.00;;;;;;;1.80;76.14;94924.56;1784938;80;21038;-67
2022/02/21 06:47:42;;;;;;;20.00;12.20;;;;;;;1.81;75.99;94921.08;1784363;80;21528;-66
2022/02/21 06:50:10;;;;;;;16.47;10.90;;;;;;;1.86;76.00;94915.47;1784750;80;21470;-75
2022/02/21 06:52:37;;;;;;;12.40;8.77;;;;;;;1.87;75.41;94906.82;1784732;80;21074;-69
2022/02/21 06:55:05;;;;;;;13.07;8.47;;;;;;;1.96;75.62;94912.47;1784398;80;21034;-67
2022/02/21 06:57:32;;;;;;;12.60;7.60;;;;;;;2.08;75.28;94905.15;1784149;80;21007;-66
2022/02/21 06:59:58;;;;;;;18.70;10.83;;;;;;;2.21;75.37;94901.70;1777409;80;20956;-68
2022/02/21 07:02:25;;;;;;;16.63;9.07;;;;;;;2.31;75.23;94898.25;1783005;80;21073;-67
2022/02/21 07:04:52;;;;;;;14.03;7.30;;;;;;;2.39;75.01;94899.56;1784359;80;21450;-68
2022/02/21 07:07:19;;;;;;;14.03;8.47;;;;;;;2.49;74.99;94897.41;1784017;80;21034;-70
2022/02/21 07:09:45;;;;;;;20.57;12.00;;;;;;;2.62;74.70;94891.81;1784684;80;20994;-65
2022/02/21 07:12:12;;;;;;;20.53;13.23;;;;;;;2.73;74.93;94897.02;1784013;80;21063;-67
2022/02/21 07:14:38;;;;;;;20.53;11.10;;;;;;;2.81;75.32;94881.80;1778354;80;22124;-67
2022/02/21 07:17:05;;;;;;;20.67;13.37;;;;;;;2.95;74.78;94881.81;1775673;80;21089;-66
2022/02/21 07:19:33;;;;;;;21.87;12.90;;;;;;;3.10;74.07;94877.44;1751459;80;21071;-67
2022/02/21 07:21:59;;;;;;;16.67;8.80;;;;;;;3.32;74.53;94873.92;1775599;80;21538;-67
2022/02/21 07:24:26;;;;;;;9.70;5.87;;;;;;;3.59;74.35;94857.33;1776457;80;20966;-67
2022/02/21 07:26:53;;;;;;;9.27;5.70;;;;;;;3.87;73.06;94847.64;1699294;83;21596;-69
2022/02/21 07:29:19;;;;;;;9.20;4.43;;;;;;;4.11;73.17;94841.87;1697625;84;21088;-68
2022/02/21 07:31:46;;;;;;;5.60;3.63;;;;;;;4.38;72.52;94839.95;1730751;83;21130;-67
2022/02/21 07:34:12;;;;;;;8.37;4.60;;;;;;;4.64;72.53;94826.72;1732953;82;21025;-68
2022/02/21 07:36:40;;;;;;;7.17;3.40;;;;;;;4.94;72.19;94819.05;1729565;81;21038;-69
2022/02/21 07:39:09;;;;;;;3.80;1.93;;;;;;;5.20;68.93;94801.33;1722791;83;21094;-67
2022/02/21 07:41:36;;;;;;;7.20;2.33;;;;;;;5.42;69.16;94788.89;1722342;83;21082;-67
2022/02/21 07:44:02;;;;;;;4.80;2.20;;;;;;;5.59;68.63;94796.97;1720670;83;20995;-66
2022/02/21 07:46:29;;;;;;;4.00;2.27;;;;;;;5.62;66.17;94806.11;1722447;83;21156;-66
2022/02/21 07:48:55;;;;;;;6.67;4.07;;;;;;;5.67;67.46;94801.69;1723236;82;21057;-68
2022/02/21 07:51:22;;;;;;;5.50;1.97;;;;;;;5.71;67.58;94802.50;1723630;83;21321;-71
2022/02/21 07:53:48;;;;;;;3.87;2.00;;;;;;;5.74;66.84;94803.77;1722977;83;21105;-70
2022/02/21 07:56:15;;;;;;;5.50;3.80;;;;;;;5.73;65.68;94801.59;1722651;83;21559;-65
2022/02/21 07:58:41;;;;;;;2.40;2.20;;;;;;;5.73;66.15;94796.81;1723152;83;21002;-67
2022/02/21 08:01:08;;;;;;;2.33;1.60;;;;;;;5.73;65.90;94787.65;1723801;83;21497;-66
2022/02/21 08:03:37;;;;;;;2.23;1.60;;;;;;;5.74;65.62;94784.99;1722859;83;21054;-71
2022/02/21 08:06:10;;;;;;;2.00;1.70;;;;;;;5.73;65.70;94781.97;1723541;83;21078;-71
2022/02/21 08:08:36;;;;;;;14.87;5.47;;;;;;;5.73;64.72;94787.20;1723304;81;21094;-68
2022/02/21 08:11:03;;;;;;;19.50;9.23;;;;;;;5.73;64.04;94775.88;1722986;82;21018;-71
2022/02/21 08:13:30;;;;;;;11.30;6.20;;;;;;;5.74;64.09;94766.67;1723339;83;20999;-68
2022/02/21 08:15:56;;;;;;;10.63;5.47;;;;;;;5.78;62.29;94767.52;1723982;83;21073;-70
2022/02/21 08:18:23;;;;;;;13.67;7.33;;;;;;;5.84;63.26;94773.52;1723018;82;21583;-69
2022/02/21 08:20:50;;;;;;;3.80;2.47;;;;;;;5.98;63.67;94765.52;1723819;82;21050;-66
2022/02/21 08:23:16;;;;;;;3.20;1.87;;;;;;;6.16;63.12;94748.66;1723856;82;21516;-67
2022/02/21 08:25:43;;;;;;;5.17;3.50;;;;;;;6.40;63.28;94744.81;1723751;82;21082;-68
2022/02/21 08:28:10;;;;;;;4.13;2.60;;;;;;;6.64;60.12;94750.08;1723207;83;21070;-68
2022/02/21 08:30:36;;;;;;;4.50;2.27;;;;;;;6.91;60.90;94742.63;1723966;83;21489;-66
2022/02/21 08:33:03;;;;;;;3.50;2.23;;;;;;;7.22;61.52;94744.22;1724170;82;21027;-65
2022/02/21 08:35:30;;;;;;;2.67;1.80;;;;;;;7.44;60.26;94740.73;1724108;83;21054;-65
2022/02/21 08:37:56;;;;;;;6.67;2.87;;;;;;;7.59;60.21;94737.80;1723905;83;21011;-65
2022/02/21 08:40:24;;;;;;;5.93;3.53;;;;;;;7.71;59.33;94739.73;1723743;83;20999;-67
2022/02/21 08:42:51;;;;;;;2.40;1.73;;;;;;;7.71;58.13;94727.49;1723395;82;21580;-66
2022/02/21 08:45:18;;;;;;;2.30;1.80;;;;;;;7.76;58.86;94720.38;1724100;83;21078;-66
2022/02/21 08:47:46;;;;;;;2.60;1.83;;;;;;;7.79;58.07;94724.25;1723489;83;21042;-66
2022/02/21 08:50:14;;;;;;;3.40;1.70;;;;;;;7.79;57.98;94718.99;1723995;82;21042;-67
2022/02/21 08:52:42;;;;;;;4.73;3.40;;;;;;;7.84;58.41;94720.21;1724163;83;21058;-68
2022/02/21 08:55:12;;;;;;;5.23;2.83;;;;;;;7.94;57.46;94717.80;1722257;82;21022;-69
2022/02/21 08:57:39;;;;;;;6.90;5.70;;;;;;;8.10;57.09;94711.73;1723346;82;21019;-65
2022/02/21 09:00:08;;;;;;;5.60;2.20;;;;;;;8.29;56.25;94704.30;1723963;83;21102;-70
2022/02/21 09:02:35;;;;;;;8.07;2.97;;;;;;;8.46;56.68;94698.64;1723347;83;21034;-69
2022/02/21 09:05:03;;;;;;;5.73;2.57;;;;;;;8.70;56.68;94691.91;1748656;81;21058;-67
2022/02/21 09:07:31;;;;;;;5.10;2.27;;;;;;;8.98;56.14;94684.61;1723999;82;21481;-68
2022/02/21 09:09:58;;;;;;;5.47;2.00;;;;;;;9.31;56.28;94686.30;1723622;83;21109;-68
2022/02/21 09:12:26;;;;;;;2.77;1.70;;;;;;;9.63;56.21;94696.37;1722558;83;21061;-69
2022/02/21 09:14:56;;;;;;;2.67;1.80;;;;;;;9.79;54.71;94682.74;1722919;83;21031;-68
2022/02/21 09:17:20;;;;;;;3.37;1.90;;;;;;;9.93;54.23;94695.05;1723881;81;21004;-67
2022/02/21 09:19:47;;;;;;;2.27;2.07;;;;;;;9.98;52.17;94695.77;1724004;82;21576;-67
2022/02/21 09:22:13;;;;;;;3.70;2.40;;;;;;;9.99;53.44;94692.22;1721078;83;21007;-65
2022/02/21 09:24:40;;;;;;;4.10;2.20;;;;;;;9.95;53.50;94691.89;1717619;82;21038;-65
2022/02/21 09:27:07;;;;;;;4.23;2.83;;;;;;;9.87;54.12;94693.44;1715284;83;21022;-69
2022/02/21 09:29:35;;;;;;;4.83;2.47;;;;;;;9.82;54.03;94697.98;1717348;83;21030;-67
2022/02/21 09:32:01;;;;;;;3.00;2.70;;;;;;;9.67;53.08;94682.64;1716501;82;21115;-73
2022/02/21 09:34:28;;;;;;;4.83;2.90;;;;;;;9.58;53.26;94681.62;1716605;83;21047;-70
2022/02/21 09:36:55;;;;;;;3.33;2.53;;;;;;;9.48;53.47;94687.59;1716045;83;21073;-69
2022/02/21 09:39:22;;;;;;;5.27;2.40;;;;;;;9.34;53.02;94684.03;1712395;83;21054;-71
2022/02/21 09:41:49;;;;;;;4.63;2.53;;;;;;;9.32;53.70;94683.20;1716639;83;20997;-69
2022/02/21 09:44:17;;;;;;;4.07;2.83;;;;;;;9.33;53.93;94679.69;1717338;82;21045;-68
2022/02/21 09:46:49;;;;;;;4.70;2.63;;;;;;;9.32;53.67;94681.89;1717599;83;20994;-66
2022/02/21 09:49:19;;;;;;;7.07;2.80;;;;;;;9.35;53.68;94678.30;1717821;82;21534;-68
2022/02/21 09:51:46;;;;;;;5.47;2.40;;;;;;;9.43;53.76;94677.66;1715877;83;22235;-67
2022/02/21 09:54:15;;;;;;;4.93;2.40;;;;;;;9.42;53.65;94680.72;1715821;83;21093;-66
2022/02/21 09:56:43;;;;;;;5.53;2.40;;;;;;;9.43;53.41;94674.56;1715988;83;21464;-67
2022/02/21 09:59:11;;;;;;;4.70;2.40;;;;;;;9.42;52.31;94673.28;1716841;82;21093;-67
2022/02/21 10:01:38;;;;;;;5.33;3.20;;;;;;;9.53;53.04;94680.43;1720359;82;21046;-68
2022/02/21 10:04:06;;;;;;;5.30;3.20;;;;;;;9.56;52.43;94679.02;1716308;83;21314;-69
2022/02/21 10:06:32;;;;;;;3.97;2.63;;;;;;;9.64;53.59;94679.64;1681891;83;21015;-68
2022/02/21 10:09:07;;;;;;;3.53;2.30;;;;;;;9.73;53.74;94671.94;1710909;83;21067;-70
2022/02/21 10:11:35;;;;;;;5.37;2.73;;;;;;;9.79;53.33;94667.79;1710627;83;21015;-68
2022/02/21 10:14:15;;;;;;;6.47;2.80;;;;;;;9.88;53.10;94673.25;1710639;83;21066;-68
2022/02/21 10:16:50;;;;;;;4.47;2.53;;;;;;;9.95;52.86;94661.58;1710770;83;21480;-68
2022/02/21 10:19:30;;;;;;;3.02;2.40;;;;;;;9.99;53.30;94652.69;1712767;83;21035;-68
2022/02/21 10:22:10;;;;;;;4.12;2.00;;;;;;;10.04;53.20;94650.77;1731425;83;21038;-68
2022/02/21 10:24:46;;;;;;;3.70;2.20;;;;;;;10.00;51.94;94639.05;1731297;83;21090;-68
2022/02/21 10:27:23;;;;;;;3.73;2.57;;;;;;;9.93;52.22;94651.11;1731320;83;21062;-69
2022/02/21 10:29:59;;;;;;;7.77;4.17;;;;;;;9.85;52.02;94649.17;1731571;83;21015;-68
2022/02/21 10:32:29;;;;;;;4.60;3.93;;;;;;;9.73;52.45;94646.91;1731578;83;21496;-68
2022/02/21 10:35:17;;;;;;;4.23;2.87;;;;;;;9.65;51.94;94647.58;1731425;83;20991;-68
2022/02/21 10:37:48;;;;;;;2.50;2.27;;;;;;;9.56;51.96;94634.25;1731639;82;21023;-68
2022/02/21 10:40:23;;;;;;;5.47;3.20;;;;;;;9.47;51.86;94627.92;1730971;83;21022;-67
2022/02/21 10:43:17;;;;;;;6.10;3.40;;;;;;;9.39;52.21;94633.42;1728474;83;21035;-67
2022/02/21 10:45:45;;;;;;;2.97;2.27;;;;;;;9.31;51.59;94619.63;1731520;83;21492;-68
2022/02/21 10:48:21;;;;;;;4.87;2.57;;;;;;;9.25;52.34;94611.92;1731406;83;21137;-67
2022/02/21 10:51:00;;;;;;;2.50;1.57;;;;;;;9.26;52.73;94614.95;1731503;83;21031;-68
2022/02/21 10:53:40;;;;;;;8.50;3.73;;;;;;;9.24;46.42;94584.72;1731357;83;21031;-68
2022/02/21 10:56:09;;;;;;;9.00;4.87;;;;;;;9.33;46.35;94587.55;1731410;83;21019;-67
2022/02/21 10:58:35;;;;;;;8.30;4.63;;;;;;;9.36;48.23;94576.06;1731243;83;21517;-68
2022/02/21 11:01:02;;;;;;;7.80;4.17;;;;;;;9.38;48.58;94579.52;1731438;83;21023;-67
2022/02/21 11:03:29;;;;;;;18.10;8.73;;;;;;;9.37;50.02;94578.62;1731690;83;21022;-67
2022/02/21 11:06:01;;;;;;;13.97;7.80;;;;;;;9.38;51.39;94575.56;1731220;83;21046;-67
2022/02/21 11:08:31;;;;;;;10.23;5.67;;;;;;;9.37;51.25;94573.83;1731284;83;21103;-68
2022/02/21 11:11:08;;;;;;;10.83;6.07;;;;;;;9.40;51.60;94568.03;1731528;83;21508;-68
2022/02/21 11:13:35;;;;;;;6.60;3.23;;;;;;;9.44;51.82;94570.95;1731483;82;21530;-67
2022/02/21 11:16:04;;;;;;;15.23;8.03;;;;;;;9.48;52.24;94568.65;1731295;83;21082;-68
2022/02/21 11:18:31;;;;;;;17.33;7.63;;;;;;;9.51;51.81;94568.55;1731521;83;21005;-67
2022/02/21 11:20:57;;;;;;;14.07;7.00;;;;;;;9.52;52.02;94565.02;1712664;82;21035;-67
2022/02/21 11:23:27;;;;;;;7.63;4.83;;;;;;;9.58;49.01;94553.89;1705547;84;21106;-67
2022/02/21 11:26:09;;;;;;;6.77;3.67;;;;;;;9.57;50.42;94565.31;1705722;84;21524;-67
2022/02/21 11:29:01;;;;;;;4.53;2.57;;;;;;;9.52;45.97;94530.80;1705750;83;21043;-67
2022/02/21 11:31:32;;;;;;;7.53;0.80;;;;;;;9.64;43.96;94560.27;1705708;83;21087;-68
2022/02/21 11:34:04;;;;;;;0.80;0.57;;;;;;;9.81;39.59;94542.62;1705307;84;21496;-67
2022/02/21 11:36:32;;;;;;;0.10;0.10;;;;;;;9.93;39.62;94544.39;1705730;84;21019;-68